createdAt,value
2018-11-28T00:00:55.403Z,2.50
2018-11-28T00:03:23.952Z,2.50
2018-11-28T00:05:54.482Z,2.50
2018-11-28T00:08:22.971Z,2.50
2018-11-28T00:10:51.537Z,2.40
2018-11-28T00:13:19.943Z,2.40
2018-11-28T00:15:48.555Z,2.30
2018-11-28T00:18:17.078Z,2.30
2018-11-28T00:20:45.533Z,2.30
2018-11-28T00:23:13.916Z,2.20
2018-11-28T00:25:42.311Z,2.20
2018-11-28T00:28:10.811Z,2.30
2018-11-28T00:30:39.292Z,2.30
2018-11-28T00:33:07.792Z,2.20
2018-11-28T00:35:36.258Z,2.20
2018-11-28T00:38:04.796Z,2.20
2018-11-28T00:40:41.969Z,2.20
2018-11-28T00:43:10.504Z,2.10
2018-11-28T00:45:38.992Z,2.10
2018-11-28T00:48:07.470Z,2.20
2018-11-28T00:50:35.962Z,2.10
2018-11-28T00:53:04.388Z,2.10
2018-11-28T00:55:32.810Z,2.10
2018-11-28T00:58:01.470Z,2.10
2018-11-28T01:00:30.959Z,2.20
2018-11-28T01:02:59.400Z,2.20
2018-11-28T01:05:27.831Z,2.20
2018-11-28T01:07:56.426Z,2.10
2018-11-28T01:10:25.759Z,2.10
2018-11-28T01:12:54.614Z,2.00
2018-11-28T01:15:23.169Z,2.00
2018-11-28T01:17:51.614Z,1.90
2018-11-28T01:20:26.947Z,1.90
2018-11-28T01:22:55.403Z,1.90
2018-11-28T01:25:23.835Z,1.80
2018-11-28T01:27:52.631Z,1.70
2018-11-28T01:30:23.291Z,1.70
2018-11-28T01:32:51.820Z,1.80
2018-11-28T01:35:21.206Z,1.80
2018-11-28T01:37:49.653Z,1.80
2018-11-28T01:40:19.126Z,1.90
2018-11-28T01:42:47.766Z,1.90
2018-11-28T01:45:17.696Z,1.90
2018-11-28T01:47:46.125Z,1.90
2018-11-28T01:50:16.227Z,1.90
2018-11-28T01:52:44.627Z,1.90
2018-11-28T01:55:14.410Z,1.90
2018-11-28T01:57:44.030Z,1.90
2018-11-28T02:00:18.727Z,1.90
2018-11-28T02:02:48.291Z,1.90
2018-11-28T02:05:16.873Z,1.80
2018-11-28T02:07:45.400Z,1.80
2018-11-28T02:10:15.494Z,1.80
2018-11-28T02:12:44.073Z,1.80
2018-11-28T02:15:18.364Z,1.70
2018-11-28T02:17:46.846Z,1.70
2018-11-28T02:20:16.121Z,1.80
2018-11-28T02:22:44.796Z,1.70
2018-11-28T02:25:23.475Z,1.70
2018-11-28T02:27:52.339Z,1.70
2018-11-28T02:30:21.113Z,1.70
2018-11-28T02:32:50.131Z,1.70
2018-11-28T02:35:19.201Z,1.70
2018-11-28T02:37:48.012Z,1.80
2018-11-28T02:40:17.400Z,1.80
2018-11-28T02:42:46.508Z,1.90
2018-11-28T02:45:16.045Z,1.80
2018-11-28T02:47:44.469Z,1.80
2018-11-28T02:50:13.567Z,1.80
2018-11-28T02:52:41.935Z,1.70
2018-11-28T02:55:17.690Z,1.80
2018-11-28T02:57:47.203Z,1.70
2018-11-28T03:00:17.519Z,1.70
2018-11-28T03:02:46.053Z,1.70
2018-11-28T03:05:14.694Z,1.70
2018-11-28T03:07:43.063Z,1.70
2018-11-28T03:10:14.247Z,1.70
2018-11-28T03:12:42.719Z,1.60
2018-11-28T03:15:32.404Z,1.60
2018-11-28T03:18:00.886Z,1.60
2018-11-28T03:20:29.339Z,1.60
2018-11-28T03:22:57.833Z,1.60
2018-11-28T03:25:26.252Z,1.60
2018-11-28T03:27:55.679Z,1.50
2018-11-28T03:30:24.381Z,1.50
2018-11-28T03:32:52.923Z,1.50
2018-11-28T03:35:22.011Z,1.50
2018-11-28T03:37:49.934Z,1.50
2018-11-28T03:40:18.393Z,1.50
2018-11-28T03:42:46.926Z,1.50
2018-11-28T03:45:16.217Z,1.40
2018-11-28T03:47:45.139Z,1.40
2018-11-28T03:50:14.826Z,1.40
2018-11-28T03:52:43.351Z,1.30
2018-11-28T03:55:13.789Z,1.30
2018-11-28T03:57:43.530Z,1.30
2018-11-28T04:00:17.261Z,1.30
2018-11-28T04:02:45.866Z,1.30
2018-11-28T04:05:14.402Z,1.30
2018-11-28T04:07:42.898Z,1.30
2018-11-28T04:10:12.229Z,1.30
2018-11-28T04:12:41.014Z,1.40
2018-11-28T04:15:15.618Z,1.30
2018-11-28T04:17:45.232Z,1.30
2018-11-28T04:20:14.715Z,1.30
2018-11-28T04:22:43.220Z,1.30
2018-11-28T04:25:12.429Z,1.40
2018-11-28T04:27:40.958Z,1.40
2018-11-28T04:30:10.993Z,1.40
2018-11-28T04:32:39.383Z,1.40
2018-11-28T04:35:09.568Z,1.40
2018-11-28T04:37:38.042Z,1.40
2018-11-28T04:40:08.997Z,1.40
2018-11-28T04:42:37.500Z,1.40
2018-11-28T04:45:08.052Z,1.40
2018-11-28T04:47:36.533Z,1.50
2018-11-28T04:50:06.348Z,1.60
2018-11-28T04:52:34.869Z,1.60
2018-11-28T04:55:03.441Z,1.60
2018-11-28T04:57:32.026Z,1.50
2018-11-28T05:00:00.589Z,1.60
2018-11-28T05:02:29.052Z,1.50
2018-11-28T05:05:00.985Z,1.50
2018-11-28T05:07:30.323Z,1.40
2018-11-28T05:09:59.049Z,1.30
2018-11-28T05:12:27.586Z,1.30
2018-11-28T05:14:56.060Z,1.30
2018-11-28T05:17:24.582Z,1.20
2018-11-28T05:19:53.143Z,1.20
2018-11-28T05:22:21.690Z,1.20
2018-11-28T05:24:50.206Z,1.20
2018-11-28T05:27:19.678Z,1.20
2018-11-28T05:29:48.350Z,1.20
2018-11-28T05:32:16.796Z,1.20
2018-11-28T05:34:45.361Z,1.20
2018-11-28T05:37:13.823Z,1.10
2018-11-28T05:39:42.288Z,1.10
2018-11-28T05:42:13.043Z,1.10
2018-11-28T05:44:41.588Z,1.00
2018-11-28T05:47:22.170Z,1.00
2018-11-28T05:49:50.596Z,0.90
2018-11-28T05:52:19.072Z,0.90
2018-11-28T05:54:47.621Z,1.00
2018-11-28T05:57:16.128Z,1.00
2018-11-28T05:59:44.638Z,1.00
2018-11-28T06:02:13.047Z,1.00
2018-11-28T06:04:49.294Z,1.00
2018-11-28T06:07:17.764Z,1.10
2018-11-28T06:09:47.359Z,1.10
2018-11-28T06:15:09.754Z,1.10
2018-11-28T06:17:38.236Z,1.10
2018-11-28T06:20:12.321Z,1.10
2018-11-28T06:22:40.755Z,1.10
2018-11-28T06:25:15.860Z,1.10
2018-11-28T06:27:48.475Z,1.10
2018-11-28T06:30:18.860Z,1.00
2018-11-28T06:32:51.309Z,1.00
2018-11-28T06:35:15.826Z,1.00
2018-11-28T06:37:50.904Z,1.00
2018-11-28T06:40:23.995Z,1.00
2018-11-28T06:42:49.324Z,1.00
2018-11-28T06:45:21.378Z,0.90
2018-11-28T06:47:50.178Z,0.90
2018-11-28T06:50:19.445Z,1.00
2018-11-28T06:52:49.075Z,0.90
2018-11-28T06:55:19.671Z,1.00
2018-11-28T06:57:48.138Z,1.00
2018-11-28T07:00:17.647Z,1.10
2018-11-28T07:02:46.363Z,1.20
2018-11-28T07:05:14.866Z,1.20
2018-11-28T07:07:43.371Z,1.10
2018-11-28T07:10:19.617Z,1.10
2018-11-28T07:12:58.250Z,1.00
2018-11-28T07:15:26.745Z,1.10
2018-11-28T07:17:55.206Z,1.10
2018-11-28T07:20:23.653Z,1.20
2018-11-28T07:22:52.039Z,1.20
2018-11-28T07:25:20.507Z,1.20
2018-11-28T07:27:49.267Z,1.20
2018-11-28T07:30:20.723Z,1.20
2018-11-28T07:32:51.706Z,1.20
2018-11-28T07:35:20.067Z,1.20
2018-11-28T07:37:48.467Z,1.30
2018-11-28T07:40:25.073Z,1.30
2018-11-28T07:43:00.268Z,1.30
2018-11-28T07:45:28.715Z,1.20
2018-11-28T07:47:57.608Z,1.30
2018-11-28T07:50:26.134Z,1.40
2018-11-28T07:52:55.458Z,1.40
2018-11-28T07:55:24.060Z,1.40
2018-11-28T07:57:52.555Z,1.40
2018-11-28T08:00:21.112Z,1.40
2018-11-28T08:02:57.770Z,1.40
2018-11-28T08:05:26.319Z,1.40
2018-11-28T08:07:54.963Z,1.40
2018-11-28T08:10:24.802Z,1.40
2018-11-28T08:12:54.194Z,1.40
2018-11-28T08:15:22.851Z,1.40
2018-11-28T08:17:51.455Z,1.40
2018-11-28T08:20:20.014Z,1.40
2018-11-28T08:22:48.566Z,1.40
2018-11-28T08:27:57.701Z,1.50
2018-11-28T08:30:27.023Z,1.60
2018-11-28T08:32:56.944Z,1.50
2018-11-28T08:35:25.755Z,1.50
2018-11-28T08:37:54.187Z,1.50
2018-11-28T08:40:26.588Z,1.50
2018-11-28T08:42:58.334Z,1.50
2018-11-28T08:45:27.038Z,1.50
2018-11-28T08:47:56.740Z,1.50
2018-11-28T08:50:26.990Z,1.50
2018-11-28T08:52:55.435Z,1.50
2018-11-28T08:55:23.991Z,1.60
2018-11-28T08:57:52.587Z,1.60
2018-11-28T09:00:22.899Z,1.60
2018-11-28T09:02:52.210Z,1.60
2018-11-28T09:05:20.715Z,1.70
2018-11-28T09:07:49.258Z,1.70
2018-11-28T09:10:18.454Z,1.70
2018-11-28T09:12:47.453Z,1.60
2018-11-28T09:15:26.755Z,1.60
2018-11-28T09:17:55.595Z,1.60
2018-11-28T09:20:26.215Z,1.70
2018-11-28T09:22:54.650Z,1.80
2018-11-28T09:25:23.101Z,1.80
2018-11-28T09:27:56.947Z,1.90
2018-11-28T09:30:28.639Z,1.90
2018-11-28T09:32:57.070Z,1.90
2018-11-28T09:35:25.535Z,2.00
2018-11-28T09:37:53.959Z,2.00
2018-11-28T09:40:23.478Z,2.00
2018-11-28T09:42:54.750Z,2.00
2018-11-28T09:45:23.110Z,2.00
2018-11-28T09:47:51.659Z,2.00
2018-11-28T09:50:24.995Z,2.00
2018-11-28T09:52:53.510Z,2.00
2018-11-28T09:55:23.897Z,2.10
2018-11-28T09:57:52.287Z,2.10
2018-11-28T10:00:22.402Z,2.20
2018-11-28T10:02:51.842Z,2.30
2018-11-28T10:05:27.266Z,2.40
2018-11-28T10:07:55.623Z,2.50
2018-11-28T10:10:23.998Z,2.50
2018-11-28T10:12:52.452Z,2.40
2018-11-28T10:15:21.850Z,2.50
2018-11-28T10:17:50.263Z,2.50
2018-11-28T10:20:19.361Z,2.40
2018-11-28T10:22:48.866Z,2.50
2018-11-28T10:25:19.346Z,2.50
2018-11-28T10:28:06.235Z,2.50
2018-11-28T10:30:37.619Z,2.60
2018-11-28T10:33:11.349Z,2.60
2018-11-28T10:35:40.814Z,2.60
2018-11-28T10:38:10.416Z,2.60
2018-11-28T10:40:39.072Z,2.60
2018-11-28T10:43:08.901Z,2.60
2018-11-28T10:45:37.737Z,2.60
2018-11-28T10:48:07.587Z,2.70
2018-11-28T10:50:36.122Z,2.70
2018-11-28T10:53:04.577Z,2.80
2018-11-28T10:55:33.096Z,2.80
2018-11-28T10:58:01.593Z,2.80
2018-11-28T11:00:36.766Z,2.90
2018-11-28T11:03:11.882Z,2.90
2018-11-28T11:05:45.457Z,2.90
2018-11-28T11:08:19.222Z,2.90
2018-11-28T11:10:53.015Z,3.00
2018-11-28T11:13:26.851Z,3.00
2018-11-28T11:15:55.980Z,3.10
2018-11-28T11:18:24.810Z,3.10
2018-11-28T11:21:02.396Z,3.10
2018-11-28T11:23:31.793Z,3.10
2018-11-28T11:26:00.407Z,3.10
2018-11-28T11:28:28.887Z,3.20
2018-11-28T11:30:57.720Z,3.20
2018-11-28T11:33:26.793Z,3.30
2018-11-28T11:35:58.189Z,3.30
2018-11-28T11:38:27.236Z,3.30
2018-11-28T11:40:55.663Z,3.30
2018-11-28T11:43:24.064Z,3.40
2018-11-28T11:45:52.548Z,3.40
2018-11-28T11:48:21.024Z,3.50
2018-11-28T11:50:49.527Z,3.50
2018-11-28T11:53:18.082Z,3.50
2018-11-28T11:55:46.573Z,3.60
2018-11-28T11:58:15.150Z,3.60
2018-11-28T12:00:45.134Z,3.60
2018-11-28T12:03:14.251Z,3.60
2018-11-28T12:05:47.411Z,3.60
2018-11-28T12:08:15.828Z,3.60
2018-11-28T12:10:44.323Z,3.60
2018-11-28T12:13:12.748Z,3.60
2018-11-28T12:15:41.155Z,3.70
2018-11-28T12:18:09.716Z,3.70
2018-11-28T12:20:45.917Z,3.70
2018-11-28T12:23:14.503Z,3.80
2018-11-28T12:25:43.010Z,3.80
2018-11-28T12:28:11.481Z,3.80
2018-11-28T12:30:39.772Z,3.80
2018-11-28T12:33:08.268Z,3.80
2018-11-28T12:35:36.726Z,3.80
2018-11-28T12:38:05.355Z,3.80
2018-11-28T12:40:34.660Z,3.80
2018-11-28T12:43:03.833Z,3.80
2018-11-28T12:45:32.276Z,3.80
2018-11-28T12:48:00.747Z,3.80
2018-11-28T12:50:30.118Z,3.80
2018-11-28T12:53:00.533Z,3.80
2018-11-28T12:55:29.781Z,3.90
2018-11-28T12:57:58.349Z,3.90
2018-11-28T13:00:28.227Z,3.90
2018-11-28T13:02:56.783Z,3.90
2018-11-28T13:05:26.092Z,3.90
2018-11-28T13:07:54.562Z,3.90
2018-11-28T13:10:27.400Z,3.90
2018-11-28T13:12:55.974Z,3.90
2018-11-28T13:15:25.288Z,4.00
2018-11-28T13:17:53.760Z,4.00
2018-11-28T13:20:22.476Z,4.00
2018-11-28T13:22:57.879Z,4.00
2018-11-28T13:25:27.969Z,4.10
2018-11-28T13:27:56.517Z,4.10
2018-11-28T13:30:25.711Z,4.10
2018-11-28T13:32:55.153Z,4.10
2018-11-28T13:35:25.011Z,4.10
2018-11-28T13:37:54.911Z,4.10
2018-11-28T13:40:23.281Z,4.10
2018-11-28T13:42:52.093Z,4.10
2018-11-28T13:45:27.246Z,4.10
2018-11-28T13:47:56.339Z,4.10
2018-11-28T13:50:25.117Z,4.10
2018-11-28T13:52:54.471Z,4.10
2018-11-28T13:56:57.430Z,4.10
2018-11-28T13:58:24.206Z,4.20
2018-11-28T14:00:52.811Z,4.20
2018-11-28T14:03:21.313Z,4.20
2018-11-28T14:05:49.899Z,4.20
2018-11-28T14:08:18.415Z,4.20
2018-11-28T14:10:46.919Z,4.20
2018-11-28T14:13:15.465Z,4.20
2018-11-28T14:15:43.915Z,4.20
2018-11-28T14:18:14.874Z,4.20
2018-11-28T14:20:49.258Z,4.20
2018-11-28T14:23:17.854Z,4.30
2018-11-28T14:25:46.306Z,4.30
2018-11-28T14:28:14.751Z,4.30
2018-11-28T14:30:43.999Z,4.20
2018-11-28T14:33:12.494Z,4.20
2018-11-28T14:35:40.990Z,4.20
2018-11-28T14:38:09.548Z,4.20
2018-11-28T14:40:37.916Z,4.20
2018-11-28T14:43:07.047Z,4.20
2018-11-28T14:45:35.997Z,4.20
2018-11-28T14:48:07.986Z,4.20
2018-11-28T14:50:36.466Z,4.20
2018-11-28T14:53:05.125Z,4.20
2018-11-28T14:55:37.161Z,4.20
2018-11-28T14:58:06.600Z,4.20
2018-11-28T15:00:35.141Z,4.20
2018-11-28T15:03:10.695Z,4.20
2018-11-28T15:05:49.995Z,4.20
2018-11-28T15:08:22.466Z,4.20
2018-11-28T15:11:11.691Z,4.20
2018-11-28T15:13:44.363Z,4.20
2018-11-28T15:16:14.876Z,4.20
2018-11-28T15:18:43.668Z,4.20
2018-11-28T15:21:12.340Z,4.20
2018-11-28T15:23:40.984Z,4.20
2018-11-28T15:26:09.604Z,4.20
2018-11-28T15:28:38.074Z,4.20
2018-11-28T15:31:06.621Z,4.20
2018-11-28T15:33:35.019Z,4.20
2018-11-28T15:36:03.471Z,4.20
2018-11-28T15:38:32.051Z,4.20
2018-11-28T15:41:00.684Z,4.20
2018-11-28T15:43:29.163Z,4.20
2018-11-28T15:45:57.808Z,4.20
2018-11-28T15:48:26.283Z,4.30
2018-11-28T15:50:54.863Z,4.20
2018-11-28T15:53:23.507Z,4.20
2018-11-28T15:55:51.928Z,4.20
2018-11-28T15:58:20.430Z,4.20
2018-11-28T16:00:49.135Z,4.20
2018-11-28T16:03:17.602Z,4.20
2018-11-28T16:05:46.411Z,4.20
2018-11-28T16:08:14.834Z,4.20
2018-11-28T16:10:44.089Z,4.30
2018-11-28T16:13:14.386Z,4.30
2018-11-28T16:15:50.197Z,4.30
2018-11-28T16:18:18.768Z,4.30
2018-11-28T16:20:53.317Z,4.30
2018-11-28T16:23:21.856Z,4.30
2018-11-28T16:25:50.536Z,4.30
2018-11-28T16:28:20.183Z,4.40
2018-11-28T16:30:49.027Z,4.40
2018-11-28T16:33:17.631Z,4.40
2018-11-28T16:35:46.248Z,4.40
2018-11-28T16:38:14.779Z,4.40
2018-11-28T16:40:44.792Z,4.40
2018-11-28T16:43:13.504Z,4.50
2018-11-28T16:45:42.755Z,4.50
2018-11-28T16:48:11.528Z,4.50
2018-11-28T16:50:40.005Z,4.50
2018-11-28T16:53:09.519Z,4.50
2018-11-28T16:55:38.023Z,4.50
2018-11-28T16:58:07.463Z,4.50
2018-11-28T17:00:37.577Z,4.50
2018-11-28T17:03:07.179Z,4.60
2018-11-28T17:05:36.470Z,4.60
2018-11-28T17:08:08.660Z,4.60
2018-11-28T17:10:37.379Z,4.60
2018-11-28T17:13:06.496Z,4.50
2018-11-28T17:15:34.999Z,4.50
2018-11-28T17:18:03.463Z,4.50
2018-11-28T17:20:32.123Z,4.60
2018-11-28T17:23:00.556Z,4.50
2018-11-28T17:25:30.697Z,4.50
2018-11-28T17:27:59.391Z,4.50
2018-11-28T17:30:29.537Z,4.60
2018-11-28T17:32:58.036Z,4.50
2018-11-28T17:35:40.311Z,4.50
2018-11-28T17:38:08.838Z,4.60
2018-11-28T17:40:37.262Z,4.60
2018-11-28T17:43:06.771Z,4.60
2018-11-28T17:45:35.304Z,4.60
2018-11-28T17:48:03.827Z,4.60
2018-11-28T17:50:36.087Z,4.60
2018-11-28T17:53:08.151Z,4.60
2018-11-28T17:55:43.384Z,4.60
2018-11-28T17:58:10.958Z,4.70
2018-11-28T18:00:39.355Z,4.70
2018-11-28T18:03:07.895Z,4.70
2018-11-28T18:05:36.440Z,4.70
2018-11-28T18:08:05.157Z,4.70
2018-11-28T18:10:33.595Z,4.70
2018-11-28T18:13:05.470Z,4.70
2018-11-28T18:15:34.975Z,4.70
2018-11-28T18:18:03.558Z,4.80
2018-11-28T18:20:32.014Z,4.80
2018-11-28T18:23:00.575Z,4.80
2018-11-28T18:25:30.382Z,4.80
2018-11-28T18:27:58.899Z,4.70
2018-11-28T18:30:27.979Z,4.70
2018-11-28T18:32:58.312Z,4.70
2018-11-28T18:35:40.825Z,4.70
2018-11-28T18:38:14.661Z,4.70
2018-11-28T18:40:43.898Z,4.70
2018-11-28T18:43:12.551Z,4.70
2018-11-28T18:45:44.694Z,4.80
2018-11-28T18:48:13.142Z,4.80
2018-11-28T18:50:41.635Z,4.80
2018-11-28T18:53:10.511Z,4.80
2018-11-28T18:55:38.881Z,4.90
2018-11-28T18:58:08.794Z,4.90
2018-11-28T19:00:37.264Z,4.90
2018-11-28T19:03:06.566Z,4.90
2018-11-28T19:05:35.882Z,4.80
2018-11-28T19:08:14.408Z,4.90
2018-11-28T19:10:43.262Z,4.90
2018-11-28T19:13:11.714Z,4.90
2018-11-28T19:15:40.158Z,4.90
2018-11-28T19:18:08.602Z,4.80
2018-11-28T19:20:37.065Z,4.80
2018-11-28T19:23:05.830Z,4.90
2018-11-28T19:25:34.291Z,4.90
2018-11-28T19:28:02.682Z,4.80
2018-11-28T19:30:34.291Z,4.90
2018-11-28T19:33:02.792Z,4.90
2018-11-28T19:35:31.959Z,4.90
2018-11-28T19:38:01.342Z,4.90
2018-11-28T19:40:46.147Z,4.80
2018-11-28T19:43:14.591Z,4.90
2018-11-28T19:45:48.154Z,4.90
2018-11-28T19:48:17.630Z,4.80
2018-11-28T19:50:46.204Z,4.80
2018-11-28T19:53:14.761Z,4.90
2018-11-28T19:55:43.408Z,4.90
2018-11-28T19:58:16.483Z,4.90
2018-11-28T20:00:45.532Z,4.80
2018-11-28T20:03:14.543Z,4.90
2018-11-28T20:05:42.963Z,4.90
2018-11-28T20:08:11.478Z,4.90
2018-11-28T20:10:40.028Z,4.90
2018-11-28T20:13:14.248Z,4.90
2018-11-28T20:15:45.064Z,4.90
2018-11-28T20:18:14.651Z,4.90
2018-11-28T20:20:43.393Z,4.90
2018-11-28T20:23:16.355Z,4.80
2018-11-28T20:25:44.983Z,4.80
2018-11-28T20:28:13.596Z,4.80
2018-11-28T20:30:44.263Z,4.70
2018-11-28T20:33:13.907Z,4.80
2018-11-28T20:35:43.275Z,4.70
2018-11-28T20:38:22.975Z,4.70
2018-11-28T20:40:51.564Z,4.70
2018-11-28T20:43:20.327Z,4.70
2018-11-28T20:45:48.829Z,4.70
2018-11-28T20:48:17.326Z,4.70
2018-11-28T20:50:48.224Z,4.70
2018-11-28T20:53:17.975Z,4.80
2018-11-28T20:55:47.081Z,4.80
2018-11-28T20:58:15.732Z,4.80
2018-11-28T21:00:44.394Z,4.80
2018-11-28T21:03:16.172Z,4.80
2018-11-28T21:05:44.708Z,4.80
2018-11-28T21:08:13.182Z,4.80
2018-11-28T21:10:41.833Z,4.80
2018-11-28T21:13:15.112Z,4.80
2018-11-28T21:15:44.944Z,4.90
2018-11-28T21:18:13.682Z,4.90
2018-11-28T21:20:46.194Z,4.90
2018-11-28T21:23:17.963Z,4.90
2018-11-28T21:25:47.177Z,4.90
2018-11-28T21:28:15.656Z,4.90
2018-11-28T21:30:44.183Z,4.90
2018-11-28T21:33:22.802Z,5.00
2018-11-28T21:35:52.270Z,4.90
2018-11-28T21:38:20.906Z,5.00
2018-11-28T21:40:49.538Z,4.90
2018-11-28T21:43:18.016Z,5.00
2018-11-28T21:45:46.488Z,5.00
2018-11-28T21:48:14.980Z,5.00
2018-11-28T21:50:43.479Z,5.00
2018-11-28T21:53:11.923Z,5.10
2018-11-28T21:55:40.631Z,5.10
2018-11-28T21:58:09.213Z,5.10
2018-11-28T22:00:37.706Z,5.10
2018-11-28T22:03:07.037Z,5.10
2018-11-28T22:05:35.519Z,5.10
2018-11-28T22:08:04.058Z,5.10
2018-11-28T22:10:32.512Z,5.10
2018-11-28T22:13:01.031Z,5.20
2018-11-28T22:15:29.446Z,5.10
2018-11-28T22:17:58.618Z,5.20
2018-11-28T22:20:27.469Z,5.20
2018-11-28T22:22:55.860Z,5.20
2018-11-28T22:25:26.846Z,5.30
2018-11-28T22:27:55.387Z,5.20
2018-11-28T22:30:27.738Z,5.20
2018-11-28T22:33:00.831Z,5.30
2018-11-28T22:35:29.294Z,5.30
2018-11-28T22:37:57.834Z,5.30
2018-11-28T22:40:30.667Z,5.40
2018-11-28T22:42:59.082Z,5.40
2018-11-28T22:45:28.876Z,5.40
2018-11-28T22:47:57.340Z,5.50
2018-11-28T22:50:25.803Z,5.50
2018-11-28T22:52:54.227Z,5.50
2018-11-28T22:55:22.710Z,5.50
2018-11-28T22:57:51.167Z,5.50
2018-11-28T23:00:27.053Z,5.50
2018-11-28T23:02:57.801Z,5.50
2018-11-28T23:05:40.998Z,5.50
2018-11-28T23:08:10.269Z,5.60
2018-11-28T23:10:38.984Z,5.60
2018-11-28T23:13:08.461Z,5.60
2018-11-28T23:15:36.983Z,5.60
2018-11-28T23:18:06.059Z,5.60
2018-11-28T23:20:34.613Z,5.60
2018-11-28T23:23:03.082Z,5.60
2018-11-28T23:25:31.510Z,5.70
2018-11-28T23:28:00.060Z,5.70
2018-11-28T23:30:28.414Z,5.70
2018-11-28T23:32:56.966Z,5.70
2018-11-28T23:35:25.665Z,5.70
2018-11-28T23:37:54.068Z,5.70
2018-11-28T23:40:24.273Z,5.70
2018-11-28T23:42:53.272Z,5.80
2018-11-28T23:45:21.823Z,5.80
2018-11-28T23:47:50.454Z,5.80
2018-11-28T23:50:21.665Z,5.80
2018-11-28T23:52:50.784Z,5.80
2018-11-28T23:55:25.322Z,5.80
2018-11-28T23:57:53.735Z,5.90
